sensor_id;sensor_type;location;lat;lon;timestamp;temperature;humidity
71206;SHT31;58935;54.498;18.544;2023-04-06T00:01:18;1.12;71.80
71206;SHT31;58935;54.498;18.544;2023-04-06T00:03:44;1.13;71.82
71206;SHT31;58935;54.498;18.544;2023-04-06T00:06:09;1.14;71.87
71206;SHT31;58935;54.498;18.544;2023-04-06T00:08:35;1.18;71.89
71206;SHT31;58935;54.498;18.544;2023-04-06T00:11:00;1.19;71.80
71206;SHT31;58935;54.498;18.544;2023-04-06T00:13:26;1.20;71.97
71206;SHT31;58935;54.498;18.544;2023-04-06T00:15:51;1.21;71.93
71206;SHT31;58935;54.498;18.544;2023-04-06T00:18:16;1.23;72.03
71206;SHT31;58935;54.498;18.544;2023-04-06T00:20:42;1.22;71.93
71206;SHT31;58935;54.498;18.544;2023-04-06T00:23:07;1.23;72.07
71206;SHT31;58935;54.498;18.544;2023-04-06T00:25:33;1.26;71.93
71206;SHT31;58935;54.498;18.544;2023-04-06T00:27:58;1.24;71.91
71206;SHT31;58935;54.498;18.544;2023-04-06T00:30:23;1.25;71.94
71206;SHT31;58935;54.498;18.544;2023-04-06T00:32:49;1.24;71.90
71206;SHT31;58935;54.498;18.544;2023-04-06T00:35:15;1.23;71.95
71206;SHT31;58935;54.498;18.544;2023-04-06T00:37:40;1.21;72.03
71206;SHT31;58935;54.498;18.544;2023-04-06T00:40:06;1.20;72.02
71206;SHT31;58935;54.498;18.544;2023-04-06T00:42:32;1.16;71.99
71206;SHT31;58935;54.498;18.544;2023-04-06T00:44:58;1.14;72.09
71206;SHT31;58935;54.498;18.544;2023-04-06T00:47:25;1.13;72.22
71206;SHT31;58935;54.498;18.544;2023-04-06T00:49:51;1.11;72.31
71206;SHT31;58935;54.498;18.544;2023-04-06T00:52:18;1.07;72.15
71206;SHT31;58935;54.498;18.544;2023-04-06T00:54:43;1.04;72.27
71206;SHT31;58935;54.498;18.544;2023-04-06T00:57:10;1.03;72.29
71206;SHT31;58935;54.498;18.544;2023-04-06T00:59:37;1.02;72.38
71206;SHT31;58935;54.498;18.544;2023-04-06T01:02:03;1.02;72.40
71206;SHT31;58935;54.498;18.544;2023-04-06T01:04:28;1.00;72.37
71206;SHT31;58935;54.498;18.544;2023-04-06T01:06:54;1.00;72.33
71206;SHT31;58935;54.498;18.544;2023-04-06T01:09:20;0.99;72.36
71206;SHT31;58935;54.498;18.544;2023-04-06T01:11:48;0.98;72.40
71206;SHT31;58935;54.498;18.544;2023-04-06T01:14:14;0.96;72.40
71206;SHT31;58935;54.498;18.544;2023-04-06T01:16:40;1.00;72.36
71206;SHT31;58935;54.498;18.544;2023-04-06T01:19:08;1.05;72.37
71206;SHT31;58935;54.498;18.544;2023-04-06T01:21:35;1.09;72.22
71206;SHT31;58935;54.498;18.544;2023-04-06T01:24:01;1.12;72.21
71206;SHT31;58935;54.498;18.544;2023-04-06T01:26:27;1.15;72.21
71206;SHT31;58935;54.498;18.544;2023-04-06T01:29:12;1.17;72.15
71206;SHT31;58935;54.498;18.544;2023-04-06T01:31:38;1.18;72.10
71206;SHT31;58935;54.498;18.544;2023-04-06T01:34:04;1.20;72.13
71206;SHT31;58935;54.498;18.544;2023-04-06T01:36:30;1.19;71.78
71206;SHT31;58935;54.498;18.544;2023-04-06T01:38:56;1.18;71.76
71206;SHT31;58935;54.498;18.544;2023-04-06T01:41:21;1.17;71.80
71206;SHT31;58935;54.498;18.544;2023-04-06T01:43:47;1.16;71.81
71206;SHT31;58935;54.498;18.544;2023-04-06T01:46:13;1.15;71.78
71206;SHT31;58935;54.498;18.544;2023-04-06T01:48:38;1.14;71.68
71206;SHT31;58935;54.498;18.544;2023-04-06T01:51:03;1.12;71.70
71206;SHT31;58935;54.498;18.544;2023-04-06T01:53:29;1.10;71.61
71206;SHT31;58935;54.498;18.544;2023-04-06T01:55:54;1.10;71.70
71206;SHT31;58935;54.498;18.544;2023-04-06T01:58:20;1.08;71.69
71206;SHT31;58935;54.498;18.544;2023-04-06T02:00:45;1.06;71.73
71206;SHT31;58935;54.498;18.544;2023-04-06T02:03:11;1.05;71.66
71206;SHT31;58935;54.498;18.544;2023-04-06T02:05:36;1.02;71.61
71206;SHT31;58935;54.498;18.544;2023-04-06T02:08:04;0.99;71.59
71206;SHT31;58935;54.498;18.544;2023-04-06T02:10:30;0.95;71.62
71206;SHT31;58935;54.498;18.544;2023-04-06T02:12:56;0.94;71.78
71206;SHT31;58935;54.498;18.544;2023-04-06T02:15:22;0.90;71.53
71206;SHT31;58935;54.498;18.544;2023-04-06T02:17:47;0.84;71.53
71206;SHT31;58935;54.498;18.544;2023-04-06T02:20:12;0.80;71.76
71206;SHT31;58935;54.498;18.544;2023-04-06T02:22:38;0.77;71.90
71206;SHT31;58935;54.498;18.544;2023-04-06T02:25:04;0.74;71.90
71206;SHT31;58935;54.498;18.544;2023-04-06T02:27:32;0.73;72.12
71206;SHT31;58935;54.498;18.544;2023-04-06T02:29:57;0.73;72.17
71206;SHT31;58935;54.498;18.544;2023-04-06T02:32:23;0.72;72.15
71206;SHT31;58935;54.498;18.544;2023-04-06T02:34:49;0.69;71.94
71206;SHT31;58935;54.498;18.544;2023-04-06T02:37:14;0.68;72.01
71206;SHT31;58935;54.498;18.544;2023-04-06T02:39:40;0.65;72.06
71206;SHT31;58935;54.498;18.544;2023-04-06T02:42:06;0.65;72.06
71206;SHT31;58935;54.498;18.544;2023-04-06T02:44:31;0.67;71.96
71206;SHT31;58935;54.498;18.544;2023-04-06T02:46:57;0.70;71.98
71206;SHT31;58935;54.498;18.544;2023-04-06T02:49:22;0.75;71.99
71206;SHT31;58935;54.498;18.544;2023-04-06T02:51:47;0.79;71.91
71206;SHT31;58935;54.498;18.544;2023-04-06T02:54:15;0.84;71.86
71206;SHT31;58935;54.498;18.544;2023-04-06T02:56:40;0.86;71.63
71206;SHT31;58935;54.498;18.544;2023-04-06T02:59:06;0.88;71.50
71206;SHT31;58935;54.498;18.544;2023-04-06T03:01:31;0.90;71.49
71206;SHT31;58935;54.498;18.544;2023-04-06T03:03:57;0.89;71.23
71206;SHT31;58935;54.498;18.544;2023-04-06T03:06:22;0.88;71.02
71206;SHT31;58935;54.498;18.544;2023-04-06T03:08:47;0.87;70.92
71206;SHT31;58935;54.498;18.544;2023-04-06T03:11:13;0.87;70.80
71206;SHT31;58935;54.498;18.544;2023-04-06T03:13:38;0.83;70.75
71206;SHT31;58935;54.498;18.544;2023-04-06T03:16:04;0.81;70.68
71206;SHT31;58935;54.498;18.544;2023-04-06T03:18:30;0.76;70.60
71206;SHT31;58935;54.498;18.544;2023-04-06T03:20:55;0.70;70.75
71206;SHT31;58935;54.498;18.544;2023-04-06T03:23:21;0.65;70.89
71206;SHT31;58935;54.498;18.544;2023-04-06T03:25:46;0.61;70.95
71206;SHT31;58935;54.498;18.544;2023-04-06T03:28:12;0.59;70.96
71206;SHT31;58935;54.498;18.544;2023-04-06T03:30:37;0.59;71.09
71206;SHT31;58935;54.498;18.544;2023-04-06T03:33:03;0.61;71.16
71206;SHT31;58935;54.498;18.544;2023-04-06T03:35:29;0.62;71.10
71206;SHT31;58935;54.498;18.544;2023-04-06T03:37:55;0.62;71.07
71206;SHT31;58935;54.498;18.544;2023-04-06T03:40:20;0.62;70.97
71206;SHT31;58935;54.498;18.544;2023-04-06T03:42:46;0.61;70.88
71206;SHT31;58935;54.498;18.544;2023-04-06T03:45:14;0.61;70.81
71206;SHT31;58935;54.498;18.544;2023-04-06T03:47:39;0.62;70.74
71206;SHT31;58935;54.498;18.544;2023-04-06T03:50:05;0.61;70.53
71206;SHT31;58935;54.498;18.544;2023-04-06T03:52:31;0.61;70.54
71206;SHT31;58935;54.498;18.544;2023-04-06T03:54:56;0.59;70.33
71206;SHT31;58935;54.498;18.544;2023-04-06T03:57:22;0.61;70.34
71206;SHT31;58935;54.498;18.544;2023-04-06T03:59:47;0.61;70.21
71206;SHT31;58935;54.498;18.544;2023-04-06T04:02:12;0.61;70.00
71206;SHT31;58935;54.498;18.544;2023-04-06T04:04:38;0.60;69.92
71206;SHT31;58935;54.498;18.544;2023-04-06T04:07:03;0.59;69.73
71206;SHT31;58935;54.498;18.544;2023-04-06T04:09:28;0.58;69.70
71206;SHT31;58935;54.498;18.544;2023-04-06T04:11:54;0.56;69.85
71206;SHT31;58935;54.498;18.544;2023-04-06T04:14:19;0.58;69.89
71206;SHT31;58935;54.498;18.544;2023-04-06T04:16:47;0.58;69.86
71206;SHT31;58935;54.498;18.544;2023-04-06T04:19:12;0.59;69.96
71206;SHT31;58935;54.498;18.544;2023-04-06T04:24:09;0.58;69.87
71206;SHT31;58935;54.498;18.544;2023-04-06T04:26:35;0.59;69.98
71206;SHT31;58935;54.498;18.544;2023-04-06T04:29:00;0.60;70.00
71206;SHT31;58935;54.498;18.544;2023-04-06T04:31:29;0.60;70.02
71206;SHT31;58935;54.498;18.544;2023-04-06T04:33:55;0.62;70.10
71206;SHT31;58935;54.498;18.544;2023-04-06T04:36:20;0.67;70.19
71206;SHT31;58935;54.498;18.544;2023-04-06T04:38:46;0.70;70.14
71206;SHT31;58935;54.498;18.544;2023-04-06T04:41:12;0.72;69.93
71206;SHT31;58935;54.498;18.544;2023-04-06T04:43:37;0.75;70.01
71206;SHT31;58935;54.498;18.544;2023-04-06T04:46:03;0.80;69.94
71206;SHT31;58935;54.498;18.544;2023-04-06T04:48:30;0.86;69.82
71206;SHT31;58935;54.498;18.544;2023-04-06T04:50:55;0.92;69.84
71206;SHT31;58935;54.498;18.544;2023-04-06T04:53:21;1.00;69.78
71206;SHT31;58935;54.498;18.544;2023-04-06T04:55:46;1.05;69.73
71206;SHT31;58935;54.498;18.544;2023-04-06T04:58:11;1.12;69.64
71206;SHT31;58935;54.498;18.544;2023-04-06T05:00:41;1.18;69.70
71206;SHT31;58935;54.498;18.544;2023-04-06T05:03:07;1.27;69.66
71206;SHT31;58935;54.498;18.544;2023-04-06T05:05:33;1.35;69.58
71206;SHT31;58935;54.498;18.544;2023-04-06T05:07:59;1.43;69.52
71206;SHT31;58935;54.498;18.544;2023-04-06T05:10:24;1.51;69.39
71206;SHT31;58935;54.498;18.544;2023-04-06T05:12:49;1.58;69.42
71206;SHT31;58935;54.498;18.544;2023-04-06T05:15:15;1.66;69.24
71206;SHT31;58935;54.498;18.544;2023-04-06T05:17:41;1.70;69.14
71206;SHT31;58935;54.498;18.544;2023-04-06T05:20:06;1.75;69.10
71206;SHT31;58935;54.498;18.544;2023-04-06T05:22:32;1.78;68.85
71206;SHT31;58935;54.498;18.544;2023-04-06T05:24:57;1.78;68.72
71206;SHT31;58935;54.498;18.544;2023-04-06T05:27:23;1.83;68.89
71206;SHT31;58935;54.498;18.544;2023-04-06T05:29:48;1.91;68.85
71206;SHT31;58935;54.498;18.544;2023-04-06T05:32:14;2.01;68.52
71206;SHT31;58935;54.498;18.544;2023-04-06T05:34:40;2.10;68.09
71206;SHT31;58935;54.498;18.544;2023-04-06T05:37:05;2.17;67.90
71206;SHT31;58935;54.498;18.544;2023-04-06T05:39:31;2.24;67.81
71206;SHT31;58935;54.498;18.544;2023-04-06T05:41:56;2.32;67.62
71206;SHT31;58935;54.498;18.544;2023-04-06T05:44:21;2.39;67.46
71206;SHT31;58935;54.498;18.544;2023-04-06T05:46:47;2.45;67.25
71206;SHT31;58935;54.498;18.544;2023-04-06T05:49:12;2.52;67.05
71206;SHT31;58935;54.498;18.544;2023-04-06T05:51:40;2.58;66.90
71206;SHT31;58935;54.498;18.544;2023-04-06T05:54:05;2.63;66.86
71206;SHT31;58935;54.498;18.544;2023-04-06T05:56:31;2.69;66.63
71206;SHT31;58935;54.498;18.544;2023-04-06T05:58:56;2.74;66.28
71206;SHT31;58935;54.498;18.544;2023-04-06T06:01:22;2.80;66.22
71206;SHT31;58935;54.498;18.544;2023-04-06T06:03:47;2.85;66.06
71206;SHT31;58935;54.498;18.544;2023-04-06T06:06:12;2.88;65.67
71206;SHT31;58935;54.498;18.544;2023-04-06T06:08:38;2.91;65.41
71206;SHT31;58935;54.498;18.544;2023-04-06T06:11:03;2.92;65.19
71206;SHT31;58935;54.498;18.544;2023-04-06T06:13:28;2.94;65.26
71206;SHT31;58935;54.498;18.544;2023-04-06T06:15:54;3.00;65.06
71206;SHT31;58935;54.498;18.544;2023-04-06T06:18:20;3.08;64.88
71206;SHT31;58935;54.498;18.544;2023-04-06T06:20:45;3.17;64.59
71206;SHT31;58935;54.498;18.544;2023-04-06T06:23:10;3.28;64.58
71206;SHT31;58935;54.498;18.544;2023-04-06T06:25:38;3.38;64.17
71206;SHT31;58935;54.498;18.544;2023-04-06T06:28:04;3.46;63.94
71206;SHT31;58935;54.498;18.544;2023-04-06T06:30:29;3.52;63.79
71206;SHT31;58935;54.498;18.544;2023-04-06T06:32:55;3.60;63.80
71206;SHT31;58935;54.498;18.544;2023-04-06T06:35:20;3.65;64.40
71206;SHT31;58935;54.498;18.544;2023-04-06T06:37:48;3.68;65.33
71206;SHT31;58935;54.498;18.544;2023-04-06T06:40:13;3.69;66.21
71206;SHT31;58935;54.498;18.544;2023-04-06T06:42:41;3.72;66.70
71206;SHT31;58935;54.498;18.544;2023-04-06T06:45:06;3.73;67.19
71206;SHT31;58935;54.498;18.544;2023-04-06T06:47:32;3.77;67.68
71206;SHT31;58935;54.498;18.544;2023-04-06T06:49:57;3.79;68.26
71206;SHT31;58935;54.498;18.544;2023-04-06T06:52:23;3.79;68.72
71206;SHT31;58935;54.498;18.544;2023-04-06T06:54:49;3.79;69.15
71206;SHT31;58935;54.498;18.544;2023-04-06T06:57:14;3.80;69.46
71206;SHT31;58935;54.498;18.544;2023-04-06T06:59:40;3.77;69.99
71206;SHT31;58935;54.498;18.544;2023-04-06T07:02:05;3.76;70.06
71206;SHT31;58935;54.498;18.544;2023-04-06T07:04:31;3.82;70.01
71206;SHT31;58935;54.498;18.544;2023-04-06T07:06:56;3.92;69.74
71206;SHT31;58935;54.498;18.544;2023-04-06T07:09:22;3.98;69.44
71206;SHT31;58935;54.498;18.544;2023-04-06T07:11:47;3.99;68.81
71206;SHT31;58935;54.498;18.544;2023-04-06T07:14:14;4.02;68.57
71206;SHT31;58935;54.498;18.544;2023-04-06T07:16:40;4.02;68.89
71206;SHT31;58935;54.498;18.544;2023-04-06T07:19:06;4.01;69.17
71206;SHT31;58935;54.498;18.544;2023-04-06T07:21:31;4.03;69.36
71206;SHT31;58935;54.498;18.544;2023-04-06T07:23:59;4.03;69.34
71206;SHT31;58935;54.498;18.544;2023-04-06T07:26:24;4.10;69.51
71206;SHT31;58935;54.498;18.544;2023-04-06T07:28:52;4.17;69.21
71206;SHT31;58935;54.498;18.544;2023-04-06T07:31:18;4.21;68.95
71206;SHT31;58935;54.498;18.544;2023-04-06T07:33:46;4.22;68.54
71206;SHT31;58935;54.498;18.544;2023-04-06T07:36:15;4.21;68.55
71206;SHT31;58935;54.498;18.544;2023-04-06T07:38:40;4.19;68.53
71206;SHT31;58935;54.498;18.544;2023-04-06T07:41:05;4.21;68.57
71206;SHT31;58935;54.498;18.544;2023-04-06T07:43:31;4.21;68.84
71206;SHT31;58935;54.498;18.544;2023-04-06T07:45:56;4.22;69.17
71206;SHT31;58935;54.498;18.544;2023-04-06T07:48:22;4.20;69.36
71206;SHT31;58935;54.498;18.544;2023-04-06T07:50:48;4.23;69.41
71206;SHT31;58935;54.498;18.544;2023-04-06T07:53:16;4.24;69.58
71206;SHT31;58935;54.498;18.544;2023-04-06T07:55:41;4.29;69.86
71206;SHT31;58935;54.498;18.544;2023-04-06T07:58:09;4.34;69.66
71206;SHT31;58935;54.498;18.544;2023-04-06T08:00:34;4.34;69.21
71206;SHT31;58935;54.498;18.544;2023-04-06T08:03:00;4.32;69.03
71206;SHT31;58935;54.498;18.544;2023-04-06T08:05:25;4.31;68.84
71206;SHT31;58935;54.498;18.544;2023-04-06T08:07:51;4.29;69.34
71206;SHT31;58935;54.498;18.544;2023-04-06T08:10:16;4.36;69.49
71206;SHT31;58935;54.498;18.544;2023-04-06T08:12:42;4.41;68.31
71206;SHT31;58935;54.498;18.544;2023-04-06T08:15:07;4.43;67.15
71206;SHT31;58935;54.498;18.544;2023-04-06T08:17:33;4.45;67.14
71206;SHT31;58935;54.498;18.544;2023-04-06T08:20:01;4.46;66.50
71206;SHT31;58935;54.498;18.544;2023-04-06T08:22:28;4.52;66.65
71206;SHT31;58935;54.498;18.544;2023-04-06T08:24:53;4.53;65.80
71206;SHT31;58935;54.498;18.544;2023-04-06T08:27:19;4.54;65.86
71206;SHT31;58935;54.498;18.544;2023-04-06T08:29:47;4.59;66.22
71206;SHT31;58935;54.498;18.544;2023-04-06T08:32:14;4.68;65.95
71206;SHT31;58935;54.498;18.544;2023-04-06T08:34:39;4.76;65.68
71206;SHT31;58935;54.498;18.544;2023-04-06T08:37:06;4.81;65.29
71206;SHT31;58935;54.498;18.544;2023-04-06T08:39:31;4.79;64.81
71206;SHT31;58935;54.498;18.544;2023-04-06T08:41:58;4.80;65.19
71206;SHT31;58935;54.498;18.544;2023-04-06T08:44:27;4.85;65.04
71206;SHT31;58935;54.498;18.544;2023-04-06T08:46:54;4.93;65.36
71206;SHT31;58935;54.498;18.544;2023-04-06T08:49:20;4.96;64.66
71206;SHT31;58935;54.498;18.544;2023-04-06T08:51:48;5.01;65.22
71206;SHT31;58935;54.498;18.544;2023-04-06T08:54:14;5.10;65.13
71206;SHT31;58935;54.498;18.544;2023-04-06T08:56:39;5.09;64.62
71206;SHT31;58935;54.498;18.544;2023-04-06T08:59:06;5.04;64.94
71206;SHT31;58935;54.498;18.544;2023-04-06T09:01:33;5.08;65.16
71206;SHT31;58935;54.498;18.544;2023-04-06T09:04:02;5.11;64.59
71206;SHT31;58935;54.498;18.544;2023-04-06T09:06:32;5.08;63.91
71206;SHT31;58935;54.498;18.544;2023-04-06T09:08:57;5.00;63.77
71206;SHT31;58935;54.498;18.544;2023-04-06T09:11:23;4.90;64.10
71206;SHT31;58935;54.498;18.544;2023-04-06T09:13:50;4.84;64.26
71206;SHT31;58935;54.498;18.544;2023-04-06T09:16:18;4.79;64.37
71206;SHT31;58935;54.498;18.544;2023-04-06T09:18:46;4.76;64.69
71206;SHT31;58935;54.498;18.544;2023-04-06T09:21:13;4.75;64.99
71206;SHT31;58935;54.498;18.544;2023-04-06T09:23:42;4.75;64.78
71206;SHT31;58935;54.498;18.544;2023-04-06T09:26:16;4.74;64.76
71206;SHT31;58935;54.498;18.544;2023-04-06T09:28:44;4.70;65.14
71206;SHT31;58935;54.498;18.544;2023-04-06T09:31:28;4.66;65.69
71206;SHT31;58935;54.498;18.544;2023-04-06T09:33:55;4.66;65.66
71206;SHT31;58935;54.498;18.544;2023-04-06T09:38:54;4.64;65.01
71206;SHT31;58935;54.498;18.544;2023-04-06T09:41:24;4.59;65.46
71206;SHT31;58935;54.498;18.544;2023-04-06T09:43:51;4.58;65.03
71206;SHT31;58935;54.498;18.544;2023-04-06T09:46:18;4.58;64.57
71206;SHT31;58935;54.498;18.544;2023-04-06T09:48:46;4.66;64.88
71206;SHT31;58935;54.498;18.544;2023-04-06T09:51:12;4.75;64.71
71206;SHT31;58935;54.498;18.544;2023-04-06T09:53:41;4.81;64.75
71206;SHT31;58935;54.498;18.544;2023-04-06T09:56:09;4.84;64.17
71206;SHT31;58935;54.498;18.544;2023-04-06T09:58:38;4.80;63.91
71206;SHT31;58935;54.498;18.544;2023-04-06T10:01:12;4.75;64.18
71206;SHT31;58935;54.498;18.544;2023-04-06T10:03:45;4.77;63.99
71206;SHT31;58935;54.498;18.544;2023-04-06T10:06:22;4.81;63.91
71206;SHT31;58935;54.498;18.544;2023-04-06T10:08:51;4.87;63.62
71206;SHT31;58935;54.498;18.544;2023-04-06T10:11:19;4.97;63.80
71206;SHT31;58935;54.498;18.544;2023-04-06T10:13:46;5.09;63.33
71206;SHT31;58935;54.498;18.544;2023-04-06T10:16:14;5.12;62.60
71206;SHT31;58935;54.498;18.544;2023-04-06T10:18:41;5.15;62.56
71206;SHT31;58935;54.498;18.544;2023-04-06T10:21:12;5.14;61.81
71206;SHT31;58935;54.498;18.544;2023-04-06T10:23:47;5.13;61.85
71206;SHT31;58935;54.498;18.544;2023-04-06T10:26:15;5.13;62.07
71206;SHT31;58935;54.498;18.544;2023-04-06T10:28:43;5.12;62.06
71206;SHT31;58935;54.498;18.544;2023-04-06T10:31:12;5.12;62.29
71206;SHT31;58935;54.498;18.544;2023-04-06T10:33:38;5.16;61.88
71206;SHT31;58935;54.498;18.544;2023-04-06T10:38:37;5.15;61.73
71206;SHT31;58935;54.498;18.544;2023-04-06T10:41:04;5.24;61.59
71206;SHT31;58935;54.498;18.544;2023-04-06T10:43:33;5.24;61.09
71206;SHT31;58935;54.498;18.544;2023-04-06T10:46:01;5.28;60.74
71206;SHT31;58935;54.498;18.544;2023-04-06T10:50:58;5.24;60.43
71206;SHT31;58935;54.498;18.544;2023-04-06T10:53:24;5.25;60.98
71206;SHT31;58935;54.498;18.544;2023-04-06T10:55:54;5.23;60.58
71206;SHT31;58935;54.498;18.544;2023-04-06T10:58:24;5.20;60.89
71206;SHT31;58935;54.498;18.544;2023-04-06T11:00:51;5.18;60.44
71206;SHT31;58935;54.498;18.544;2023-04-06T11:03:17;5.17;60.27
71206;SHT31;58935;54.498;18.544;2023-04-06T11:05:45;5.16;60.15
71206;SHT31;58935;54.498;18.544;2023-04-06T11:08:21;5.10;59.94
71206;SHT31;58935;54.498;18.544;2023-04-06T11:10:50;5.05;60.55
71206;SHT31;58935;54.498;18.544;2023-04-06T11:13:16;5.03;61.31
71206;SHT31;58935;54.498;18.544;2023-04-06T11:15:43;5.06;61.98
71206;SHT31;58935;54.498;18.544;2023-04-06T11:18:10;5.15;62.31
71206;SHT31;58935;54.498;18.544;2023-04-06T11:20:36;5.17;61.48
71206;SHT31;58935;54.498;18.544;2023-04-06T11:23:01;5.07;61.41
71206;SHT31;58935;54.498;18.544;2023-04-06T11:25:28;5.05;61.88
71206;SHT31;58935;54.498;18.544;2023-04-06T11:27:56;5.08;61.91
71206;SHT31;58935;54.498;18.544;2023-04-06T11:30:22;5.11;62.00
71206;SHT31;58935;54.498;18.544;2023-04-06T11:32:48;5.14;62.37
71206;SHT31;58935;54.498;18.544;2023-04-06T11:37:45;5.22;61.79
71206;SHT31;58935;54.498;18.544;2023-04-06T11:40:10;5.29;61.03
71206;SHT31;58935;54.498;18.544;2023-04-06T11:42:36;5.31;60.69
71206;SHT31;58935;54.498;18.544;2023-04-06T11:45:02;5.32;60.53
71206;SHT31;58935;54.498;18.544;2023-04-06T11:47:29;5.33;60.98
71206;SHT31;58935;54.498;18.544;2023-04-06T11:50:05;5.33;61.12
71206;SHT31;58935;54.498;18.544;2023-04-06T11:52:33;5.28;61.04
71206;SHT31;58935;54.498;18.544;2023-04-06T11:54:58;5.31;61.23
71206;SHT31;58935;54.498;18.544;2023-04-06T11:57:36;5.34;60.58
71206;SHT31;58935;54.498;18.544;2023-04-06T12:00:01;5.33;60.23
71206;SHT31;58935;54.498;18.544;2023-04-06T12:02:27;5.31;60.07
71206;SHT31;58935;54.498;18.544;2023-04-06T12:04:53;5.29;60.63
71206;SHT31;58935;54.498;18.544;2023-04-06T12:07:18;5.25;61.28
71206;SHT31;58935;54.498;18.544;2023-04-06T12:09:43;5.25;60.87
71206;SHT31;58935;54.498;18.544;2023-04-06T12:12:09;5.25;60.18
71206;SHT31;58935;54.498;18.544;2023-04-06T12:14:35;5.28;60.19
71206;SHT31;58935;54.498;18.544;2023-04-06T12:17:00;5.28;59.87
71206;SHT31;58935;54.498;18.544;2023-04-06T12:19:26;5.26;60.34
71206;SHT31;58935;54.498;18.544;2023-04-06T12:21:52;5.31;60.31
71206;SHT31;58935;54.498;18.544;2023-04-06T12:24:19;5.28;59.97
71206;SHT31;58935;54.498;18.544;2023-04-06T12:26:45;5.25;60.08
71206;SHT31;58935;54.498;18.544;2023-04-06T12:29:11;5.21;59.34
71206;SHT31;58935;54.498;18.544;2023-04-06T12:31:38;5.14;59.85
71206;SHT31;58935;54.498;18.544;2023-04-06T12:34:05;5.14;60.34
71206;SHT31;58935;54.498;18.544;2023-04-06T12:36:31;5.18;60.31
71206;SHT31;58935;54.498;18.544;2023-04-06T12:38:57;5.21;60.42
71206;SHT31;58935;54.498;18.544;2023-04-06T12:41:23;5.26;60.31
71206;SHT31;58935;54.498;18.544;2023-04-06T12:43:49;5.39;60.13
71206;SHT31;58935;54.498;18.544;2023-04-06T12:46:15;5.38;59.54
71206;SHT31;58935;54.498;18.544;2023-04-06T12:48:41;5.37;59.53
71206;SHT31;58935;54.498;18.544;2023-04-06T12:51:07;5.45;59.62
71206;SHT31;58935;54.498;18.544;2023-04-06T12:53:33;5.61;59.62
71206;SHT31;58935;54.498;18.544;2023-04-06T12:56:00;5.65;58.74
71206;SHT31;58935;54.498;18.544;2023-04-06T12:58:26;5.59;58.84
71206;SHT31;58935;54.498;18.544;2023-04-06T13:00:53;5.53;59.34
71206;SHT31;58935;54.498;18.544;2023-04-06T13:03:19;5.53;59.54
71206;SHT31;58935;54.498;18.544;2023-04-06T13:05:46;5.52;59.10
71206;SHT31;58935;54.498;18.544;2023-04-06T13:08:12;5.47;59.33
71206;SHT31;58935;54.498;18.544;2023-04-06T13:13:12;5.48;59.48
71206;SHT31;58935;54.498;18.544;2023-04-06T13:15:37;5.52;59.33
71206;SHT31;58935;54.498;18.544;2023-04-06T13:18:03;5.51;59.39
71206;SHT31;58935;54.498;18.544;2023-04-06T13:20:28;5.47;59.91
71206;SHT31;58935;54.498;18.544;2023-04-06T13:22:55;5.48;59.55
71206;SHT31;58935;54.498;18.544;2023-04-06T13:25:20;5.45;59.57
71206;SHT31;58935;54.498;18.544;2023-04-06T13:27:45;5.45;59.92
71206;SHT31;58935;54.498;18.544;2023-04-06T13:30:12;5.42;60.14
71206;SHT31;58935;54.498;18.544;2023-04-06T13:32:38;5.33;60.25
71206;SHT31;58935;54.498;18.544;2023-04-06T13:35:06;5.31;60.73
71206;SHT31;58935;54.498;18.544;2023-04-06T13:37:32;5.35;60.70
71206;SHT31;58935;54.498;18.544;2023-04-06T13:39:58;5.31;60.28
71206;SHT31;58935;54.498;18.544;2023-04-06T13:42:23;5.23;60.66
71206;SHT31;58935;54.498;18.544;2023-04-06T13:44:49;5.18;60.81
71206;SHT31;58935;54.498;18.544;2023-04-06T13:47:16;5.13;61.21
71206;SHT31;58935;54.498;18.544;2023-04-06T13:49:42;5.09;61.19
71206;SHT31;58935;54.498;18.544;2023-04-06T13:52:08;5.07;61.07
71206;SHT31;58935;54.498;18.544;2023-04-06T13:54:34;5.01;61.46
71206;SHT31;58935;54.498;18.544;2023-04-06T13:57:00;4.99;61.86
71206;SHT31;58935;54.498;18.544;2023-04-06T13:59:31;4.99;61.91
71206;SHT31;58935;54.498;18.544;2023-04-06T14:01:57;4.99;61.84
71206;SHT31;58935;54.498;18.544;2023-04-06T14:04:22;4.99;62.23
71206;SHT31;58935;54.498;18.544;2023-04-06T14:06:47;5.03;62.62
71206;SHT31;58935;54.498;18.544;2023-04-06T14:09:13;5.02;62.91
71206;SHT31;58935;54.498;18.544;2023-04-06T14:11:38;5.00;63.28
71206;SHT31;58935;54.498;18.544;2023-04-06T14:14:03;4.96;63.39
71206;SHT31;58935;54.498;18.544;2023-04-06T14:16:29;4.91;64.04
71206;SHT31;58935;54.498;18.544;2023-04-06T14:18:54;4.93;64.17
71206;SHT31;58935;54.498;18.544;2023-04-06T14:21:22;4.94;63.99
71206;SHT31;58935;54.498;18.544;2023-04-06T14:23:48;5.00;64.00
71206;SHT31;58935;54.498;18.544;2023-04-06T14:26:13;5.00;64.21
71206;SHT31;58935;54.498;18.544;2023-04-06T14:28:39;4.91;64.47
71206;SHT31;58935;54.498;18.544;2023-04-06T14:33:35;4.74;65.21
71206;SHT31;58935;54.498;18.544;2023-04-06T14:36:02;4.67;65.88
71206;SHT31;58935;54.498;18.544;2023-04-06T14:38:28;4.58;66.55
71206;SHT31;58935;54.498;18.544;2023-04-06T14:40:57;4.50;66.56
71206;SHT31;58935;54.498;18.544;2023-04-06T14:43:23;4.45;66.77
71206;SHT31;58935;54.498;18.544;2023-04-06T14:45:48;4.46;66.72
71206;SHT31;58935;54.498;18.544;2023-04-06T14:48:13;4.45;66.39
71206;SHT31;58935;54.498;18.544;2023-04-06T14:50:40;4.43;66.17
71206;SHT31;58935;54.498;18.544;2023-04-06T14:53:06;4.39;65.96
71206;SHT31;58935;54.498;18.544;2023-04-06T14:55:32;4.32;66.36
71206;SHT31;58935;54.498;18.544;2023-04-06T14:57:58;4.24;67.06
71206;SHT31;58935;54.498;18.544;2023-04-06T15:00:23;4.20;67.54
71206;SHT31;58935;54.498;18.544;2023-04-06T15:02:48;4.16;67.62
71206;SHT31;58935;54.498;18.544;2023-04-06T15:05:16;4.14;67.69
71206;SHT31;58935;54.498;18.544;2023-04-06T15:07:42;4.14;67.77
71206;SHT31;58935;54.498;18.544;2023-04-06T15:10:07;4.12;67.96
71206;SHT31;58935;54.498;18.544;2023-04-06T15:12:35;4.13;68.12
71206;SHT31;58935;54.498;18.544;2023-04-06T15:15:01;4.11;68.48
71206;SHT31;58935;54.498;18.544;2023-04-06T15:17:26;4.03;68.85
71206;SHT31;58935;54.498;18.544;2023-04-06T15:19:52;3.93;69.23
71206;SHT31;58935;54.498;18.544;2023-04-06T15:22:18;3.87;69.66
71206;SHT31;58935;54.498;18.544;2023-04-06T15:24:44;3.84;69.90
71206;SHT31;58935;54.498;18.544;2023-04-06T15:27:09;3.83;70.19
71206;SHT31;58935;54.498;18.544;2023-04-06T15:29:34;3.82;70.62
71206;SHT31;58935;54.498;18.544;2023-04-06T15:32:00;3.82;70.69
71206;SHT31;58935;54.498;18.544;2023-04-06T15:34:26;3.79;70.86
71206;SHT31;58935;54.498;18.544;2023-04-06T15:36:55;3.76;70.79
71206;SHT31;58935;54.498;18.544;2023-04-06T15:39:23;3.77;71.06
71206;SHT31;58935;54.498;18.544;2023-04-06T15:41:51;3.80;71.09